Time;durP1;ratioP1;P1;durP2;ratioP2;P2;SDS_P1;SDS_P2;PMS_P1;PMS_P2;Temp;Humidity;BMP_temperature;BMP_pressure;BME280_temperature;BME280_humidity;BME280_pressure;Samples;Min_cycle;Max_cycle;Signal;HPM_P1;HPM_P2
2021/09/24 00:02:07;;;;;;;2.30;1.00;;;;;;;16.34;60.10;98988.09;6254010;22;42151;-80
2021/09/24 00:04:37;;;;;;;1.03;0.80;;;;;;;16.30;60.30;98984.00;6281058;22;42189;-80
2021/09/24 00:07:07;;;;;;;1.20;0.93;;;;;;;16.15;60.56;98967.44;6281056;22;40819;-79
2021/09/24 00:09:34;;;;;;;1.37;1.07;;;;;;;16.08;60.66;98956.38;6254932;22;40910;-79
2021/09/24 00:12:02;;;;;;;1.30;1.20;;;;;;;16.16;60.96;98972.66;6255103;22;41733;-79
2021/09/24 00:14:30;;;;;;;3.93;1.30;;;;;;;16.18;61.27;98972.53;6280173;22;42225;-79
2021/09/24 00:16:58;;;;;;;1.30;1.20;;;;;;;16.16;61.45;98969.97;6308144;22;40612;-79
2021/09/24 00:19:25;;;;;;;1.33;1.23;;;;;;;16.07;61.16;98954.69;6280838;22;41941;-79
2021/09/24 00:21:54;;;;;;;1.17;1.00;;;;;;;16.16;61.03;98969.97;6279570;22;41860;-79
2021/09/24 00:24:22;;;;;;;1.13;1.10;;;;;;;16.05;60.86;98945.97;6254641;22;41254;-79
2021/09/24 00:26:49;;;;;;;1.97;1.10;;;;;;;16.06;61.11;98947.69;6279984;22;38886;-79
2021/09/24 00:29:17;;;;;;;1.73;1.30;;;;;;;16.14;61.60;98966.56;6280496;22;42115;-79
2021/09/24 00:31:44;;;;;;;1.83;1.33;;;;;;;16.19;61.24;98968.03;6307940;22;43149;-79
2021/09/24 00:34:12;;;;;;;0.90;0.90;;;;;;;16.22;61.22;98970.41;6280305;22;42678;-80
2021/09/24 00:36:39;;;;;;;1.50;0.80;;;;;;;16.23;61.10;98964.09;6229394;22;39110;-78
2021/09/24 00:39:08;;;;;;;1.33;1.23;;;;;;;16.22;61.00;98962.41;6253608;22;41004;-80
2021/09/24 00:41:43;;;;;;;1.73;1.17;;;;;;;16.09;61.33;98952.75;6279842;22;43742;-79
2021/09/24 00:44:11;;;;;;;1.20;1.10;;;;;;;16.15;61.64;98964.75;6280452;22;43284;-79
2021/09/24 00:46:38;;;;;;;1.40;1.20;;;;;;;16.11;61.99;98958.81;6280565;22;40728;-79
2021/09/24 00:49:06;;;;;;;1.10;1.00;;;;;;;16.08;62.30;98952.88;6272060;22;41566;-79
2021/09/24 00:51:33;;;;;;;1.87;0.97;;;;;;;15.95;62.32;98933.53;6254779;22;43063;-79
2021/09/24 00:54:02;;;;;;;2.97;1.27;;;;;;;15.77;62.13;98903.84;6279423;22;40853;-79
2021/09/24 00:56:31;;;;;;;1.43;1.13;;;;;;;15.97;62.47;98934.22;6279291;22;39895;-78
2021/09/24 00:58:59;;;;;;;2.17;1.30;;;;;;;15.99;62.49;98935.78;6280071;22;42016;-79
2021/09/24 01:01:27;;;;;;;1.80;1.60;;;;;;;16.10;62.55;98946.41;6279407;22;42054;-79
2021/09/24 01:04:08;;;;;;;1.37;1.27;;;;;;;16.10;62.95;98943.75;6283214;22;43299;-80
2021/09/24 01:06:37;;;;;;;1.50;1.40;;;;;;;16.11;62.70;98937.44;6281605;22;39929;-80
2021/09/24 01:09:05;;;;;;;1.83;1.40;;;;;;;16.13;62.67;98939.97;6255773;22;40896;-79
2021/09/24 01:11:41;;;;;;;2.83;1.40;;;;;;;16.09;62.58;98942.06;6281203;22;43970;-79
2021/09/24 01:14:09;;;;;;;1.37;0.97;;;;;;;16.05;62.56;98937.97;6281429;22;42517;-79
2021/09/24 01:16:37;;;;;;;1.20;1.10;;;;;;;16.07;62.95;98937.84;6281201;22;39141;-80
2021/09/24 01:19:05;;;;;;;1.30;0.97;;;;;;;16.06;62.75;98937.00;6256484;22;40927;-79
2021/09/24 01:21:34;;;;;;;1.20;1.10;;;;;;;16.05;62.42;98935.28;6256259;22;43086;-80
2021/09/24 01:24:02;;;;;;;0.90;0.80;;;;;;;16.00;62.45;98937.50;6280919;22;42562;-79
2021/09/24 01:26:30;;;;;;;1.67;1.13;;;;;;;15.99;62.57;98930.44;6277897;22;39449;-81
2021/09/24 01:28:59;;;;;;;2.07;1.30;;;;;;;15.95;62.48;98929.00;6281477;22;42753;-79
2021/09/24 01:31:27;;;;;;;2.20;1.13;;;;;;;15.94;62.33;98932.66;6281271;22;43255;-78
2021/09/24 01:33:54;;;;;;;1.33;1.10;;;;;;;15.90;62.20;98931.22;6309213;22;42591;-79
2021/09/24 01:36:22;;;;;;;1.17;1.10;;;;;;;15.87;62.35;98931.47;6308936;22;40175;-78
2021/09/24 01:38:51;;;;;;;1.17;0.90;;;;;;;15.84;62.52;98930.88;6268765;22;41898;-78
2021/09/24 01:41:18;;;;;;;1.17;0.93;;;;;;;15.80;62.82;98925.81;6269565;22;42062;-79
2021/09/24 01:43:46;;;;;;;1.93;1.07;;;;;;;15.69;62.98;98912.50;6281335;22;42237;-79
2021/09/24 01:46:13;;;;;;;1.00;1.00;;;;;;;15.72;62.86;98924.72;6281691;22;40201;-78
2021/09/24 01:48:43;;;;;;;2.07;1.50;;;;;;;15.71;63.29;98915.00;6280404;22;42118;-79
2021/09/24 01:51:11;;;;;;;1.50;1.40;;;;;;;15.60;64.08;98894.53;6280567;22;43866;-81
2021/09/24 01:53:38;;;;;;;1.20;1.10;;;;;;;15.70;64.15;98913.34;6281562;22;42389;-78
2021/09/24 01:56:07;;;;;;;1.40;1.30;;;;;;;15.61;64.62;98895.38;6308501;22;41035;-78
2021/09/24 01:58:35;;;;;;;1.17;0.90;;;;;;;15.70;64.16;98902.66;6280957;22;42860;-78
2021/09/24 02:01:03;;;;;;;0.83;0.83;;;;;;;15.71;64.80;98899.00;6308950;22;43161;-78
2021/09/24 02:03:30;;;;;;;1.27;1.17;;;;;;;15.69;64.86;98898.28;6280552;22;42145;-78
2021/09/24 02:05:58;;;;;;;1.10;1.00;;;;;;;15.71;64.70;98899.00;6255899;22;39311;-78
2021/09/24 02:08:25;;;;;;;1.87;1.07;;;;;;;15.70;64.44;98897.31;6255562;22;41945;-78
2021/09/24 02:10:53;;;;;;;1.70;1.07;;;;;;;15.45;64.38;98861.91;6280824;22;42457;-79
2021/09/24 02:13:22;;;;;;;3.10;1.93;;;;;;;15.67;64.66;98908.25;6280748;22;42527;-78
2021/09/24 02:15:49;;;;;;;0.90;0.90;;;;;;;15.67;64.62;98902.91;6280791;22;40657;-80
2021/09/24 02:18:23;;;;;;;1.03;0.97;;;;;;;15.58;64.54;98885.00;6308713;22;41723;-78
2021/09/24 02:20:50;;;;;;;1.33;1.20;;;;;;;15.62;64.74;98891.75;6268358;22;43887;-81
2021/09/24 02:23:18;;;;;;;1.63;0.90;;;;;;;15.66;64.66;98898.53;6280898;22;43054;-79
2021/09/24 02:25:45;;;;;;;1.13;1.03;;;;;;;15.66;65.10;98895.88;6281102;22;40005;-78
2021/09/24 02:28:13;;;;;;;1.67;1.57;;;;;;;15.66;65.66;98899.38;6255411;22;42027;-78
2021/09/24 02:30:43;;;;;;;1.60;1.50;;;;;;;15.57;65.18;98881.47;6308694;22;43215;-78
2021/09/24 02:33:10;;;;;;;1.93;1.07;;;;;;;15.70;65.43;98897.31;6281009;22;42598;-79
2021/09/24 02:35:38;;;;;;;1.53;1.27;;;;;;;15.69;65.95;98899.16;6282123;22;39660;-78
2021/09/24 02:38:06;;;;;;;1.50;1.40;;;;;;;15.73;65.68;98905.06;6308908;22;42032;-79
2021/09/24 02:40:40;;;;;;;1.50;1.37;;;;;;;15.75;65.70;98905.78;6254948;22;42431;-78
2021/09/24 02:43:08;;;;;;;1.17;1.07;;;;;;;15.78;65.64;98917.06;6255208;22;41592;-79
2021/09/24 02:45:43;;;;;;;1.27;1.17;;;;;;;15.79;65.60;98918.75;6281089;22;38861;-78
2021/09/24 02:48:11;;;;;;;1.23;1.13;;;;;;;15.80;65.48;98922.28;6255228;22;42200;-79
2021/09/24 02:50:38;;;;;;;2.17;1.27;;;;;;;15.77;65.63;98917.19;6280237;22;43092;-79
2021/09/24 02:53:06;;;;;;;1.33;1.00;;;;;;;15.77;65.45;98925.19;6280036;22;42054;-78
2021/09/24 02:55:33;;;;;;;1.93;1.67;;;;;;;15.76;65.83;98928.84;6280155;22;40770;-81
2021/09/24 02:58:02;;;;;;;1.30;1.20;;;;;;;15.62;66.06;98911.28;6281122;22;43476;-78
2021/09/24 03:00:30;;;;;;;2.47;1.60;;;;;;;15.75;66.04;98937.81;6280444;22;41831;-79
2021/09/24 03:03:00;;;;;;;2.20;1.20;;;;;;;15.74;65.86;98942.31;6280933;22;41467;-79
2021/09/24 03:05:27;;;;;;;1.90;1.40;;;;;;;15.75;65.75;98943.16;6281483;22;40975;-80
2021/09/24 03:07:55;;;;;;;1.80;1.10;;;;;;;15.73;65.79;98939.75;6279856;22;42210;-80
2021/09/24 03:10:23;;;;;;;2.73;1.57;;;;;;;15.65;66.06;98926.22;6281132;22;43111;-80
2021/09/24 03:12:50;;;;;;;2.17;1.10;;;;;;;15.66;65.90;98938.59;6279748;22;43226;-79
2021/09/24 03:15:18;;;;;;;1.67;1.20;;;;;;;15.48;66.16;98908.00;6280359;22;40346;-79
2021/09/24 03:17:45;;;;;;;1.40;1.30;;;;;;;15.64;65.98;98937.84;6307712;22;41705;-79
2021/09/24 03:20:15;;;;;;;2.47;1.30;;;;;;;15.64;66.31;98945.88;6280358;22;43197;-80
2021/09/24 03:22:42;;;;;;;1.27;1.17;;;;;;;15.62;65.86;98950.47;6254976;22;41221;-79
2021/09/24 03:25:11;;;;;;;1.27;1.17;;;;;;;15.58;65.96;98949.06;6254047;22;40109;-79
2021/09/24 03:27:39;;;;;;;1.33;1.10;;;;;;;15.55;65.93;98951.97;6308419;22;41893;-79
2021/09/24 03:30:08;;;;;;;1.20;1.10;;;;;;;15.52;65.98;98960.19;6308195;22;43719;-79
2021/09/24 03:32:36;;;;;;;1.40;1.30;;;;;;;15.48;65.70;98958.72;6280788;22;42342;-79
2021/09/24 03:35:05;;;;;;;1.30;1.20;;;;;;;15.45;66.11;98962.50;6308778;22;39832;-79
2021/09/24 03:37:34;;;;;;;0.90;0.90;;;;;;;15.40;65.90;98954.88;6280115;22;41920;-79
2021/09/24 03:40:01;;;;;;;2.57;1.37;;;;;;;15.36;66.45;98958.75;6280306;22;41811;-79
2021/09/24 03:42:29;;;;;;;1.23;1.10;;;;;;;15.36;66.18;98969.41;6253823;22;41587;-80
2021/09/24 03:44:57;;;;;;;1.10;1.00;;;;;;;15.23;66.55;98952.69;6308564;22;40390;-79
2021/09/24 03:47:25;;;;;;;1.17;1.07;;;;;;;15.26;66.61;98963.13;6254312;22;41270;-80
2021/09/24 03:49:52;;;;;;;1.23;1.10;;;;;;;15.28;66.64;98969.19;6230078;22;41785;-79
2021/09/24 03:52:20;;;;;;;1.20;1.10;;;;;;;15.27;66.92;98980.84;6280345;22;42341;-79
2021/09/24 03:54:49;;;;;;;1.40;1.00;;;;;;;15.23;66.72;98974.03;6254897;22;39265;-79
2021/09/24 03:57:16;;;;;;;1.80;1.20;;;;;;;15.20;67.32;98976.97;6280030;22;41093;-79
2021/09/24 03:59:46;;;;;;;1.17;1.00;;;;;;;15.17;66.86;98979.03;6254569;22;41963;-79
2021/09/24 04:02:13;;;;;;;1.53;1.00;;;;;;;15.14;66.91;98980.13;6279875;22;42240;-79
2021/09/24 04:04:41;;;;;;;0.90;0.87;;;;;;;15.10;66.41;98978.66;6280697;22;40342;-80
2021/09/24 04:07:08;;;;;;;1.83;1.13;;;;;;;15.06;66.92;98978.06;6280531;22;42732;-80
2021/09/24 04:09:36;;;;;;;1.13;1.03;;;;;;;15.02;66.82;98981.06;6280257;22;41846;-79
2021/09/24 04:12:06;;;;;;;1.40;1.27;;;;;;;14.97;67.44;98977.91;6279729;22;42439;-80
2021/09/24 04:14:40;;;;;;;1.67;1.30;;;;;;;14.98;67.38;98979.63;6280009;22;39129;-79
2021/09/24 04:17:07;;;;;;;1.53;1.20;;;;;;;14.86;67.07;98970.75;6280396;22;40933;-79
2021/09/24 04:34:36;;;;;;;1.93;1.50;;;;;;;14.73;68.18;98978.84;6143433;22;41818;-79
2021/09/24 04:37:13;;;;;;;1.60;1.20;;;;;;;14.51;68.25;98928.19;6253485;22;41486;-79
2021/09/24 04:43:09;;;;;;;1.57;1.40;;;;;;;15.06;67.58;98977.22;6251154;22;40935;-79
2021/09/24 05:00:16;;;;;;;2.13;1.20;;;;;;;15.51;67.35;98983.34;6079045;23;43203;-80
2021/09/24 05:02:46;;;;;;;3.47;1.57;;;;;;;15.66;67.10;99000.84;6098460;23;42435;-80
2021/09/24 05:09:43;;;;;;;1.60;1.50;;;;;;;15.72;67.20;98980.78;6105328;23;41589;-80
2021/09/24 05:12:14;;;;;;;2.03;1.50;;;;;;;15.86;67.04;99003.69;6012353;23;43933;-79
2021/09/24 05:14:59;;;;;;;3.43;1.80;;;;;;;15.53;67.45;98932.53;6059366;23;42188;-80
2021/09/24 05:17:40;;;;;;;1.30;1.13;;;;;;;15.65;66.86;98956.44;6054457;23;39139;-80
2021/09/24 05:20:46;;;;;;;1.93;1.50;;;;;;;15.65;66.96;98936.88;6140410;22;40706;-80
2021/09/24 05:23:18;;;;;;;1.40;1.30;;;;;;;15.94;66.35;98985.25;6214043;22;43115;-80
2021/09/24 05:25:45;;;;;;;1.80;1.43;;;;;;;16.09;66.34;98998.16;6217784;22;41562;-80
2021/09/24 05:28:13;;;;;;;1.40;1.30;;;;;;;16.22;66.68;98999.81;6240776;22;40318;-80
2021/09/24 05:30:41;;;;;;;2.17;1.60;;;;;;;16.28;66.31;99015.34;6242215;22;42101;-80
2021/09/24 05:33:08;;;;;;;1.57;1.47;;;;;;;16.32;66.42;99016.81;6214827;22;43138;-80
2021/09/24 05:35:36;;;;;;;2.03;1.10;;;;;;;16.37;66.01;99026.13;6251738;22;42528;-80
2021/09/24 05:38:04;;;;;;;1.33;1.23;;;;;;;16.42;65.63;99015.06;6280132;22;39740;-81
2021/09/24 05:40:32;;;;;;;2.07;1.83;;;;;;;16.46;65.47;99019.13;6279995;22;40832;-81
2021/09/24 05:43:00;;;;;;;1.63;1.53;;;;;;;16.51;65.61;99017.78;6307655;22;43347;-80
2021/09/24 05:45:28;;;;;;;1.87;1.67;;;;;;;16.57;65.25;99016.41;6279214;22;41179;-80
2021/09/24 05:47:55;;;;;;;1.37;1.27;;;;;;;16.62;65.22;99022.25;6254230;22;38935;-80
2021/09/24 05:50:23;;;;;;;3.17;1.60;;;;;;;16.67;64.87;99021.88;6255704;22;41931;-80
2021/09/24 05:52:57;;;;;;;1.47;1.37;;;;;;;16.72;64.76;99023.16;6268853;22;43574;-80
2021/09/24 05:55:25;;;;;;;1.63;1.23;;;;;;;16.77;64.78;99028.13;6279512;22;42376;-80
2021/09/24 05:57:54;;;;;;;2.67;1.60;;;;;;;16.81;64.66;99027.72;6281129;22;40206;-80
2021/09/24 06:00:23;;;;;;;2.00;1.57;;;;;;;16.81;64.63;99022.38;6281849;22;42050;-80
2021/09/24 06:02:51;;;;;;;1.63;1.17;;;;;;;16.91;64.38;99027.81;6307037;22;42909;-80
2021/09/24 06:05:20;;;;;;;1.37;1.20;;;;;;;16.97;64.26;99034.44;6306799;22;42188;-80
2021/09/24 06:07:48;;;;;;;2.07;1.53;;;;;;;17.02;64.39;99033.09;6281234;22;39905;-81
2021/09/24 06:10:18;;;;;;;1.83;1.40;;;;;;;16.97;64.12;99011.22;6280958;22;42045;-81
2021/09/24 06:12:48;;;;;;;2.30;1.50;;;;;;;17.02;64.02;99021.53;6309277;22;43022;-80
2021/09/24 06:15:19;;;;;;;1.40;1.20;;;;;;;17.18;63.80;99032.63;6308156;22;41878;-81
2021/09/24 06:17:47;;;;;;;2.53;1.23;;;;;;;17.17;63.83;99014.84;6282032;22;38902;-80
2021/09/24 06:20:16;;;;;;;1.53;1.20;;;;;;;17.28;63.55;99036.19;6281176;22;40705;-82
2021/09/24 06:22:43;;;;;;;3.43;2.40;;;;;;;17.33;63.81;99036.59;6280795;22;42170;-80
2021/09/24 06:25:12;;;;;;;3.40;2.37;;;;;;;17.39;63.42;99035.25;6276058;22;41232;-80
2021/09/24 06:27:41;;;;;;;1.63;1.50;;;;;;;17.47;63.24;99036.25;6254556;22;39280;-80
2021/09/24 06:30:11;;;;;;;2.30;1.67;;;;;;;17.55;63.01;99036.44;6279027;22;41052;-80
2021/09/24 06:32:40;;;;;;;1.10;1.10;;;;;;;17.62;62.83;99034.06;6281029;22;43162;-80
2021/09/24 06:35:14;;;;;;;1.90;1.80;;;;;;;17.71;62.68;99035.09;6254357;22;42587;-82
2021/09/24 06:37:42;;;;;;;1.27;1.10;;;;;;;17.77;62.39;99038.09;6282335;22;40240;-80
2021/09/24 06:40:10;;;;;;;1.40;1.30;;;;;;;17.83;62.59;99044.72;6253480;22;41723;-81
2021/09/24 06:42:38;;;;;;;1.47;1.33;;;;;;;17.82;62.50;99043.88;6280686;22;43225;-79
2021/09/24 06:45:07;;;;;;;1.63;1.40;;;;;;;17.90;62.42;99052.09;6290670;22;42002;-77
2021/09/24 06:47:35;;;;;;;2.50;1.70;;;;;;;17.96;62.23;99050.69;6271722;22;39369;-82
2021/09/24 06:50:05;;;;;;;1.80;1.47;;;;;;;18.01;62.06;99053.81;6287463;22;42790;-78
2021/09/24 06:52:32;;;;;;;1.77;1.67;;;;;;;18.05;61.75;99051.69;6292459;22;41843;-79
2021/09/24 06:55:02;;;;;;;2.40;1.83;;;;;;;18.03;61.85;99043.78;6272729;22;41766;-83
2021/09/24 06:57:30;;;;;;;2.40;1.70;;;;;;;18.10;61.78;99052.13;6287368;22;40246;-83
2021/09/24 06:59:58;;;;;;;2.53;1.60;;;;;;;18.13;61.56;99047.34;6284197;22;41708;-83
2021/09/24 07:02:26;;;;;;;1.70;1.60;;;;;;;18.17;62.06;99055.97;6290123;22;42119;-82
2021/09/24 07:04:53;;;;;;;1.83;1.73;;;;;;;18.22;61.63;99051.84;6286135;22;43208;-81
2021/09/24 07:07:22;;;;;;;2.10;1.67;;;;;;;18.24;61.63;99060.63;6280725;22;40994;-77
2021/09/24 07:09:50;;;;;;;1.80;1.70;;;;;;;18.27;61.54;99060.34;6280346;22;42841;-78
2021/09/24 07:12:17;;;;;;;2.20;2.03;;;;;;;18.29;61.76;99058.38;6254553;22;42741;-83
2021/09/24 07:14:51;;;;;;;1.73;1.50;;;;;;;18.25;61.28;99043.53;6281307;22;42008;-82
2021/09/24 07:17:18;;;;;;;3.10;1.60;;;;;;;18.36;61.33;99063.16;6307936;22;39927;-83
2021/09/24 07:19:46;;;;;;;5.30;1.53;;;;;;;18.45;61.15;99062.31;6281899;22;41695;-83
2021/09/24 07:22:15;;;;;;;1.30;1.20;;;;;;;18.49;61.15;99063.72;6280296;22;42138;-82
2021/09/24 07:24:45;;;;;;;1.33;1.10;;;;;;;18.59;61.20;99064.59;6308365;22;42594;-83
2021/09/24 07:27:13;;;;;;;2.47;1.90;;;;;;;18.64;60.74;99062.38;6308265;22;39987;-84
2021/09/24 07:29:40;;;;;;;1.50;1.40;;;;;;;18.70;60.71;99064.47;6256097;22;41028;-81
2021/09/24 07:32:09;;;;;;;2.40;1.20;;;;;;;18.72;60.81;99048.22;6280100;22;43222;-86
2021/09/24 07:34:39;;;;;;;2.10;1.50;;;;;;;18.79;60.45;99049.38;6255360;22;41667;-82
2021/09/24 07:37:06;;;;;;;1.30;1.20;;;;;;;18.92;60.24;99066.84;6280769;22;39854;-84
2021/09/24 07:39:34;;;;;;;1.70;1.53;;;;;;;18.99;60.29;99072.50;6255513;22;41867;-84
2021/09/24 07:42:10;;;;;;;1.70;1.27;;;;;;;19.07;59.99;99075.28;6279315;22;43176;-88
2021/09/24 07:44:38;;;;;;;1.20;1.10;;;;;;;19.15;59.92;99079.97;6308173;22;42445;-78
2021/09/24 07:47:07;;;;;;;1.93;1.53;;;;;;;19.23;59.55;99080.91;6280761;22;40410;-80
2021/09/24 07:49:34;;;;;;;1.43;1.33;;;;;;;19.33;59.71;99086.25;6308303;22;42607;-80
2021/09/24 07:52:02;;;;;;;2.20;1.63;;;;;;;19.43;59.02;99087.06;6306660;22;44039;-82
2021/09/24 07:54:30;;;;;;;1.40;1.30;;;;;;;19.56;58.87;99087.63;6280373;22;41229;-81
2021/09/24 07:56:57;;;;;;;1.50;1.40;;;;;;;19.65;58.72;99081.41;6280354;22;40155;-81
2021/09/24 07:59:27;;;;;;;1.83;1.20;;;;;;;19.72;58.43;99071.72;6280195;22;42594;-80
2021/09/24 08:02:01;;;;;;;2.70;1.47;;;;;;;19.91;58.43;99078.84;6279950;22;41864;-82
2021/09/24 08:04:28;;;;;;;2.53;1.60;;;;;;;20.03;57.57;99074.09;6280746;22;41310;-83
2021/09/24 08:06:56;;;;;;;1.17;1.07;;;;;;;20.24;57.28;99088.16;6255289;22;39341;-84
2021/09/24 08:09:23;;;;;;;4.90;3.43;;;;;;;20.35;56.93;99090.66;6281549;22;42504;-84
2021/09/24 08:11:51;;;;;;;2.33;1.93;;;;;;;20.56;56.72;99100.28;6307001;22;42848;-81
2021/09/24 08:14:18;;;;;;;3.03;2.20;;;;;;;20.62;56.17;99087.06;6280695;22;43179;-88
2021/09/24 08:16:47;;;;;;;2.47;1.53;;;;;;;20.83;56.05;99105.56;6254559;22;39125;-80
2021/09/24 08:19:15;;;;;;;1.93;1.77;;;;;;;20.94;55.45;99102.66;6279658;22;41883;-79
2021/09/24 08:21:42;;;;;;;2.17;1.80;;;;;;;20.95;54.92;99098.09;6279255;22;43840;-81
2021/09/24 08:24:10;;;;;;;2.10;1.97;;;;;;;21.02;54.74;99100.00;6279862;22;41392;-85
2021/09/24 08:26:38;;;;;;;1.57;1.47;;;;;;;21.10;54.87;99100.09;6280171;22;40510;-83
2021/09/24 08:29:05;;;;;;;1.50;1.27;;;;;;;21.35;54.58;99116.47;6255510;22;40848;-84
2021/09/24 08:31:33;;;;;;;2.23;2.03;;;;;;;21.47;54.14;99099.88;6253793;22;42736;-82
2021/09/24 08:34:02;;;;;;;1.97;1.67;;;;;;;21.79;53.76;99106.44;6307336;22;42496;-79
2021/09/24 08:36:29;;;;;;;2.37;1.60;;;;;;;21.96;53.12;99099.28;6306800;22;40043;-78
2021/09/24 08:39:03;;;;;;;2.90;1.70;;;;;;;22.16;52.25;99098.88;6279920;22;40868;-81
2021/09/24 08:41:31;;;;;;;3.00;1.50;;;;;;;22.40;51.84;99119.69;6278965;22;43197;-79
2021/09/24 08:43:59;;;;;;;1.40;1.30;;;;;;;22.61;51.74;99115.72;6279654;22;42469;-80
2021/09/24 08:46:27;;;;;;;1.20;1.10;;;;;;;22.82;51.42;99121.50;6278885;22;39296;-80
2021/09/24 08:48:58;;;;;;;1.93;1.40;;;;;;;22.98;51.03;99101.78;6306787;22;42411;-82
2021/09/24 08:51:27;;;;;;;2.07;1.83;;;;;;;23.20;49.96;99112.75;6253150;22;43164;-84
2021/09/24 08:53:55;;;;;;;1.60;1.50;;;;;;;23.25;50.02;99121.16;6278770;22;42418;-81
2021/09/24 08:56:22;;;;;;;1.50;1.33;;;;;;;23.28;50.15;99103.78;6253765;22;40065;-82
2021/09/24 08:58:50;;;;;;;2.33;1.40;;;;;;;23.50;49.59;99126.53;6307414;22;42188;-82
2021/09/24 09:01:17;;;;;;;1.87;1.47;;;;;;;23.61;48.91;99120.84;6279354;22;41954;-84
2021/09/24 09:03:48;;;;;;;1.73;1.53;;;;;;;23.43;48.19;99085.00;6254162;22;42673;-92
2021/09/24 09:06:18;;;;;;;1.40;1.30;;;;;;;23.76;48.35;99119.09;6253295;22;40028;-80
2021/09/24 09:08:47;;;;;;;1.40;1.30;;;;;;;23.87;48.20;99124.13;6279889;22;41917;-79
2021/09/24 09:11:18;;;;;;;1.37;1.27;;;;;;;23.99;48.31;99124.59;6253635;22;41758;-82
2021/09/24 09:13:50;;;;;;;2.47;1.60;;;;;;;24.17;47.62;99132.47;6254375;22;41193;-82
2021/09/24 09:16:25;;;;;;;4.37;1.47;;;;;;;24.29;47.35;99125.69;6278824;22;39057;-85
2021/09/24 09:19:07;;;;;;;1.43;1.07;;;;;;;24.45;46.08;99133.72;6254249;22;40707;-81
2021/09/24 09:21:42;;;;;;;2.63;1.70;;;;;;;24.50;46.27;99127.75;6279062;22;43428;-86
2021/09/24 09:24:22;;;;;;;1.67;1.50;;;;;;;24.65;46.13;99126.81;6229202;22;42935;-84
2021/09/24 09:27:16;;;;;;;1.70;1.40;;;;;;;24.92;45.73;99138.16;6255068;22;39033;-83
2021/09/24 09:30:01;;;;;;;2.00;1.70;;;;;;;24.86;45.47;99122.63;6282198;22;41155;-84
2021/09/24 09:33:03;;;;;;;2.33;1.63;;;;;;;24.62;45.57;99072.16;6255253;22;43175;-87
2021/09/24 09:36:13;;;;;;;4.17;2.63;;;;;;;24.70;45.48;99075.69;6276606;22;42029;-86
2021/09/24 09:38:43;;;;;;;2.10;1.47;;;;;;;25.10;45.52;99133.31;6198280;22;39930;-84
2021/09/24 09:41:15;;;;;;;3.00;1.60;;;;;;;25.25;45.33;99145.03;6254448;22;41984;-81
2021/09/24 09:43:46;;;;;;;1.40;1.30;;;;;;;25.28;45.27;99139.25;6280088;22;41880;-81
2021/09/24 09:46:17;;;;;;;1.67;1.20;;;;;;;25.20;45.21;99120.38;6255387;22;41224;-79
2021/09/24 09:49:07;;;;;;;1.70;1.40;;;;;;;25.38;44.40;99147.13;6255534;22;39309;-82
2021/09/24 09:51:37;;;;;;;1.73;1.53;;;;;;;25.35;44.67;99151.06;6280131;22;43087;-79
2021/09/24 09:54:05;;;;;;;2.20;1.50;;;;;;;25.35;44.43;99150.19;6254652;22;42855;-79
2021/09/24 09:56:39;;;;;;;2.77;1.20;;;;;;;25.37;44.25;99151.72;6308034;22;42269;-77
2021/09/24 09:59:24;;;;;;;1.40;1.20;;;;;;;25.53;44.33;99152.59;6254806;22;39312;-78
2021/09/24 10:02:09;;;;;;;2.00;1.20;;;;;;;25.65;44.15;99157.44;6267342;22;42435;-79
2021/09/24 10:04:46;;;;;;;3.50;1.57;;;;;;;25.74;43.71;99144.59;6280506;22;42216;-78
2021/09/24 10:07:19;;;;;;;1.17;1.03;;;;;;;25.99;43.51;99159.59;6255092;22;42174;-78
2021/09/24 10:09:48;;;;;;;1.67;1.23;;;;;;;26.19;43.64;99150.91;6281364;22;39113;-83
2021/09/24 10:12:20;;;;;;;1.03;1.00;;;;;;;26.48;43.20;99149.00;6254335;22;40780;-83
2021/09/24 10:15:07;;;;;;;3.47;1.40;;;;;;;26.74;41.90;99161.22;6281305;22;42683;-88
2021/09/24 10:17:36;;;;;;;1.37;1.27;;;;;;;26.97;41.89;99164.63;6254500;22;41628;-79
2021/09/24 10:20:05;;;;;;;1.90;1.50;;;;;;;26.97;41.30;99131.16;6281654;22;40371;-81
2021/09/24 10:22:33;;;;;;;1.33;1.23;;;;;;;27.19;41.07;99143.75;6255452;22;41678;-81
2021/09/24 10:25:01;;;;;;;1.70;1.60;;;;;;;27.44;40.94;99150.47;6255581;22;42814;-85
2021/09/24 10:27:34;;;;;;;1.20;1.10;;;;;;;27.69;41.10;99152.78;6280709;22;41006;-85
2021/09/24 10:30:08;;;;;;;1.60;1.23;;;;;;;27.87;40.17;99155.81;6281381;22;40207;-86
2021/09/24 10:32:36;;;;;;;1.43;1.13;;;;;;;27.71;39.64;99151.50;6281302;22;41865;-87
2021/09/24 10:35:06;;;;;;;1.27;1.17;;;;;;;27.77;39.94;99161.63;6307884;22;42609;-85
2021/09/24 10:37:36;;;;;;;1.20;1.10;;;;;;;27.74;39.42;99159.28;6255036;22;42326;-83
2021/09/24 10:40:26;;;;;;;1.50;1.40;;;;;;;27.64;40.05;99150.63;6280637;22;38921;-84
2021/09/24 10:42:58;;;;;;;1.80;1.57;;;;;;;27.74;40.29;99155.72;6279073;22;42343;-80
2021/09/24 10:45:35;;;;;;;1.50;1.40;;;;;;;27.74;40.01;99150.28;6254470;22;43004;-83
2021/09/24 10:48:17;;;;;;;1.30;1.20;;;;;;;28.01;39.63;99152.16;6297804;22;42322;-78
2021/09/24 10:50:54;;;;;;;1.60;1.30;;;;;;;28.26;38.82;99154.41;6280570;22;40234;-81
2021/09/24 10:53:24;;;;;;;1.27;1.17;;;;;;;28.41;38.73;99146.94;6280119;22;40956;-80
2021/09/24 10:56:22;;;;;;;1.10;1.00;;;;;;;28.97;38.13;99149.44;6254891;22;43145;-84
2021/09/24 10:58:50;;;;;;;2.30;1.30;;;;;;;29.35;37.29;99158.72;6275916;22;42316;-80
2021/09/24 11:01:33;;;;;;;1.67;1.17;;;;;;;29.84;35.97;99161.03;6280394;22;40537;-82
2021/09/24 11:04:10;;;;;;;1.47;1.37;;;;;;;30.14;35.40;99166.91;6255349;22;42090;-78
2021/09/24 11:06:40;;;;;;;1.27;1.17;;;;;;;30.97;34.75;99159.63;6280087;22;41902;-83
2021/09/24 11:09:10;;;;;;;2.97;1.97;;;;;;;31.81;34.34;99152.94;6280322;22;41406;-79
2021/09/24 11:11:40;;;;;;;1.40;1.30;;;;;;;33.71;31.49;99159.72;6280218;22;39530;-84
2021/09/24 11:14:33;;;;;;;1.03;1.00;;;;;;;36.51;28.19;99177.75;6308637;22;42221;-88
2021/09/24 11:17:06;;;;;;;1.40;1.30;;;;;;;39.28;24.04;99197.94;6280923;22;43085;-81
2021/09/24 11:19:44;;;;;;;1.15;1.05;;;;;;;40.69;22.76;99199.75;6280767;22;41455;-83
2021/09/24 11:22:15;;;;;;;1.17;1.10;;;;;;;42.12;21.39;99197.72;6306657;22;40487;-77
2021/09/24 11:24:46;;;;;;;1.27;1.17;;;;;;;42.84;19.83;99198.59;6278437;22;41317;-86
2021/09/24 11:27:17;;;;;;;1.23;1.13;;;;;;;42.69;19.57;99195.97;6254133;22;42905;-85
2021/09/24 11:30:15;;;;;;;2.05;1.10;;;;;;;41.83;21.06;99178.22;6255382;22;42110;-88
2021/09/24 11:32:51;;;;;;;1.10;1.10;;;;;;;41.22;21.35;99172.28;6294352;22;40059;-84
2021/09/24 11:35:21;;;;;;;1.20;0.90;;;;;;;40.92;21.78;99167.75;6254504;22;40962;-79
2021/09/24 11:37:49;;;;;;;1.17;1.10;;;;;;;40.54;21.58;99164.56;6243386;22;41841;-84
2021/09/24 11:40:20;;;;;;;1.25;1.15;;;;;;;39.94;22.29;99157.19;6281073;22;41545;-78
2021/09/24 11:42:50;;;;;;;1.05;1.02;;;;;;;39.28;22.38;99148.03;6280462;22;40135;-79
2021/09/24 11:45:22;;;;;;;0.88;0.88;;;;;;;40.39;21.77;99152.69;6254676;22;42213;-80
2021/09/24 11:47:58;;;;;;;0.98;0.90;;;;;;;42.43;20.28;99148.13;6279152;22;43732;-80
2021/09/24 11:50:33;;;;;;;0.80;0.80;;;;;;;43.64;18.51;99156.72;6302405;22;42411;-79
2021/09/24 11:57:20;;;;;;;0.98;0.90;;;;;;;41.66;19.94;99149.19;6133028;23;42130;-88
2021/09/24 11:59:49;;;;;;;1.05;1.05;;;;;;;39.83;21.46;99144.44;6239866;22;41998;-82
2021/09/24 12:02:23;;;;;;;1.15;1.13;;;;;;;38.31;22.82;99130.28;6256282;22;42085;-85
2021/09/24 12:04:59;;;;;;;1.40;1.30;;;;;;;37.59;23.88;99114.25;6308319;22;40323;-86
2021/09/24 12:07:48;;;;;;;1.15;1.10;;;;;;;38.72;23.55;99107.19;6255984;22;41836;-84
2021/09/24 12:10:31;;;;;;;1.70;1.10;;;;;;;39.70;21.68;99072.91;6244795;22;41795;-89
2021/09/24 12:13:10;;;;;;;1.33;1.20;;;;;;;40.54;20.34;99091.53;6255642;22;42289;-83
2021/09/24 12:15:52;;;;;;;1.33;1.00;;;;;;;40.09;21.26;99120.28;6281778;22;40047;-83
2021/09/24 12:18:22;;;;;;;1.48;1.38;;;;;;;38.56;22.54;99113.81;6281384;22;42491;-81
2021/09/24 12:20:59;;;;;;;1.13;1.13;;;;;;;37.20;24.11;99103.47;6280649;22;43874;-81
2021/09/24 12:23:26;;;;;;;0.90;0.90;;;;;;;35.98;25.23;99093.72;6308558;22;42058;-81
2021/09/24 12:25:59;;;;;;;1.27;1.17;;;;;;;35.78;26.03;99084.34;6254991;22;38939;-80
2021/09/24 12:28:27;;;;;;;0.97;0.97;;;;;;;35.43;26.15;99070.81;6302397;22;41912;-86
2021/09/24 12:31:01;;;;;;;0.97;0.97;;;;;;;34.99;27.07;99073.34;6255658;22;42163;-85
2021/09/24 12:33:32;;;;;;;1.10;1.00;;;;;;;34.36;27.09;99057.03;6255687;22;41932;-85